Time,TemperatureF,DewpointF,PressureIn,WindDirection,WindDirectionDegrees,WindSpeedMPH,WindSpeedGustMPH,Humidity,HourlyPrecipIn,Conditions,Clouds,dailyrainin,SoftwareType,DateUTC
2013-10-15 00:02:00,57.8,55.0,30.25,NE,51,0.0,2.0,90,0.00,,,0.00,weatherlink.com 1.10,2013-10-15 04:02:00,
2013-10-15 00:17:00,57.8,55.0,30.24,NE,51,0.0,1.0,90,0.00,,,0.00,weatherlink.com 1.10,2013-10-15 04:17:00,
2013-10-15 00:32:00,57.2,55.0,30.24,NE,51,0.0,1.0,91,0.00,,,0.00,weatherlink.com 1.10,2013-10-15 04:32:00,
2013-10-15 00:47:00,56.6,54.0,30.24,NE,51,0.0,1.0,91,0.00,,,0.00,weatherlink.com 1.10,2013-10-15 04:47:00,
2013-10-15 01:03:00,55.8,54.0,30.23,NE,51,0.0,1.0,92,0.00,,,0.00,weatherlink.com 1.10,2013-10-15 05:03:00,
2013-10-15 01:18:00,54.9,53.0,30.23,NE,51,1.0,1.0,92,0.00,,,0.00,weatherlink.com 1.10,2013-10-15 05:18:00,
2013-10-15 01:33:00,54.2,53.0,30.23,NE,51,1.0,2.0,94,0.00,,,0.00,weatherlink.com 1.10,2013-10-15 05:33:00,
2013-10-15 01:48:00,53.3,52.0,30.23,NE,51,0.0,1.0,94,0.00,,,0.00,weatherlink.com 1.10,2013-10-15 05:48:00,
2013-10-15 02:03:00,53.3,52.0,30.24,NE,51,0.0,1.0,95,0.00,,,0.00,weatherlink.com 1.10,2013-10-15 06:03:00,
2013-10-15 02:18:00,53.2,52.0,30.24,NE,51,0.0,1.0,95,0.00,,,0.00,weatherlink.com 1.10,2013-10-15 06:18:00,
2013-10-15 02:33:00,53.0,52.0,30.24,NE,51,0.0,0.0,95,0.00,,,0.00,weatherlink.com 1.10,2013-10-15 06:33:00,
2013-10-15 02:48:00,53.5,52.0,30.24,NE,51,0.0,1.0,96,0.00,,,0.00,weatherlink.com 1.10,2013-10-15 06:48:00,
2013-10-15 03:03:00,54.0,53.0,30.23,NE,51,0.0,1.0,96,0.00,,,0.00,weatherlink.com 1.10,2013-10-15 07:03:00,
2013-10-15 03:18:00,54.5,53.0,30.23,NE,51,0.0,1.0,96,0.00,,,0.00,weatherlink.com 1.10,2013-10-15 07:18:00,
2013-10-15 03:33:00,55.2,54.0,30.23,NE,51,0.0,1.0,97,0.00,,,0.00,weatherlink.com 1.10,2013-10-15 07:33:00,
2013-10-15 03:48:00,55.3,54.0,30.23,NE,51,1.0,1.0,96,0.00,,,0.00,weatherlink.com 1.10,2013-10-15 07:48:00,
2013-10-15 04:03:00,55.4,54.0,30.23,NE,51,1.0,2.0,95,0.00,,,0.00,weatherlink.com 1.10,2013-10-15 08:03:00,
2013-10-15 04:18:00,55.4,54.0,30.22,NE,49,0.0,2.0,96,0.00,,,0.00,weatherlink.com 1.10,2013-10-15 08:18:00,
2013-10-15 04:33:00,55.5,54.0,30.22,NE,49,0.0,1.0,95,0.00,,,0.00,weatherlink.com 1.10,2013-10-15 08:33:00,
2013-10-15 04:48:00,55.2,54.0,30.22,NE,49,0.0,1.0,95,0.00,,,0.00,weatherlink.com 1.10,2013-10-15 08:48:00,
2013-10-15 05:03:00,55.1,54.0,30.22,NE,49,0.0,1.0,95,0.00,,,0.00,weatherlink.com 1.10,2013-10-15 09:03:00,
2013-10-15 05:18:00,55.0,54.0,30.22,NE,49,0.0,1.0,95,0.00,,,0.00,weatherlink.com 1.10,2013-10-15 09:18:00,
2013-10-15 05:33:00,55.2,54.0,30.22,NE,49,0.0,1.0,96,0.00,,,0.00,weatherlink.com 1.10,2013-10-15 09:33:00,
2013-10-15 05:48:00,55.2,54.0,30.22,NE,49,0.0,1.0,96,0.00,,,0.00,weatherlink.com 1.10,2013-10-15 09:48:00,
2013-10-15 06:03:00,55.1,54.0,30.22,NE,49,1.0,1.0,96,0.00,,,0.00,weatherlink.com 1.10,2013-10-15 10:03:00,
2013-10-15 06:18:00,55.3,54.0,30.22,NE,51,0.0,2.0,96,0.00,,,0.00,weatherlink.com 1.10,2013-10-15 10:18:00,
2013-10-15 06:33:00,55.5,54.0,30.21,NE,51,1.0,2.0,95,0.00,,,0.00,weatherlink.com 1.10,2013-10-15 10:33:00,
2013-10-15 06:48:00,55.5,54.0,30.21,NE,51,1.0,1.0,95,0.00,,,0.00,weatherlink.com 1.10,2013-10-15 10:48:00,
2013-10-15 07:03:00,55.5,54.0,30.21,NE,51,1.0,1.0,95,0.00,,,0.00,weatherlink.com 1.10,2013-10-15 11:03:00,
2013-10-15 07:18:00,55.7,54.0,30.22,East,87,0.0,1.0,95,0.00,,,0.00,weatherlink.com 1.10,2013-10-15 11:18:00,
2013-10-15 07:33:00,55.8,54.0,30.22,East,87,0.0,1.0,95,0.00,,,0.00,weatherlink.com 1.10,2013-10-15 11:33:00,
2013-10-15 07:48:00,56.0,55.0,30.22,NE,49,2.0,3.0,95,0.00,,,0.00,weatherlink.com 1.10,2013-10-15 11:48:00,
2013-10-15 08:03:00,56.4,55.0,30.23,East,90,1.0,3.0,95,0.00,,,0.00,weatherlink.com 1.10,2013-10-15 12:03:00,
2013-10-15 08:18:00,56.7,55.0,30.23,ENE,65,2.0,3.0,94,0.00,,,0.00,weatherlink.com 1.10,2013-10-15 12:18:00,
2013-10-15 08:33:00,57.1,55.0,30.23,NE,34,0.0,3.0,93,0.00,,,0.00,weatherlink.com 1.10,2013-10-15 12:33:00,
2013-10-15 08:48:00,57.6,55.0,30.23,ENE,59,1.0,3.0,92,0.00,,,0.00,weatherlink.com 1.10,2013-10-15 12:48:00,
2013-10-15 09:03:00,58.1,56.0,30.23,NNE,18,1.0,3.0,91,0.00,,,0.00,weatherlink.com 1.10,2013-10-15 13:03:00,
2013-10-15 09:18:00,58.5,56.0,30.23,NE,47,2.0,3.0,90,0.00,,,0.00,weatherlink.com 1.10,2013-10-15 13:18:00,
2013-10-15 09:33:00,59.0,56.0,30.22,NE,55,1.0,5.0,89,0.00,,,0.00,weatherlink.com 1.10,2013-10-15 13:33:00,
2013-10-15 09:48:00,59.9,56.0,30.22,North,355,3.0,4.0,88,0.00,,,0.00,weatherlink.com 1.10,2013-10-15 13:48:00,
2013-10-15 10:03:00,61.2,56.0,30.22,East,96,3.0,6.0,84,0.00,,,0.00,weatherlink.com 1.10,2013-10-15 14:03:00,
2013-10-15 10:18:00,62.7,57.0,30.22,NNE,19,3.0,8.0,81,0.00,,,0.00,weatherlink.com 1.10,2013-10-15 14:18:00,
2013-10-15 10:33:00,62.4,57.0,30.22,ENE,71,6.0,8.0,82,0.00,,,0.00,weatherlink.com 1.10,2013-10-15 14:33:00,
2013-10-15 10:48:00,62.4,57.0,30.23,ENE,76,4.0,8.0,81,0.00,,,0.00,weatherlink.com 1.10,2013-10-15 14:48:00,
2013-10-15 11:03:00,62.7,57.0,30.22,North,360,3.0,6.0,81,0.00,,,0.00,weatherlink.com 1.10,2013-10-15 15:03:00,
2013-10-15 11:18:00,63.9,57.0,30.21,East,88,3.0,8.0,78,0.00,,,0.00,weatherlink.com 1.10,2013-10-15 15:18:00,
2013-10-15 11:49:00,65.7,58.0,30.20,NNE,15,0.0,4.0,75,0.00,,,0.00,weatherlink.com 1.10,2013-10-15 15:49:00,
2013-10-15 12:04:00,66.5,58.0,30.20,South,178,2.0,4.0,73,0.00,,,0.00,weatherlink.com 1.10,2013-10-15 16:04:00,
2013-10-15 12:19:00,67.1,58.0,30.20,ENE,57,1.0,5.0,73,0.00,,,0.00,weatherlink.com 1.10,2013-10-15 16:19:00,
2013-10-15 12:34:00,67.5,58.0,30.19,NNE,27,2.0,6.0,72,0.00,,,0.00,weatherlink.com 1.10,2013-10-15 16:34:00,
2013-10-15 12:49:00,68.3,58.0,30.18,NE,45,2.0,4.0,69,0.00,,,0.00,weatherlink.com 1.10,2013-10-15 16:49:00,
2013-10-15 13:04:00,68.8,58.0,30.17,SW,215,1.0,4.0,69,0.00,,,0.00,weatherlink.com 1.10,2013-10-15 17:04:00,
2013-10-15 13:19:00,67.7,58.0,30.16,East,92,3.0,3.0,71,0.00,,,0.00,weatherlink.com 1.10,2013-10-15 17:19:00,
2013-10-15 13:34:00,69.4,58.0,30.16,SW,236,3.0,8.0,67,0.00,,,0.00,weatherlink.com 1.10,2013-10-15 17:34:00,
2013-10-15 13:49:00,70.2,60.0,30.15,South,183,3.0,5.0,69,0.00,,,0.00,weatherlink.com 1.10,2013-10-15 17:49:00,
2013-10-15 14:04:00,70.9,58.0,30.15,SSE,164,1.0,5.0,65,0.00,,,0.00,weatherlink.com 1.10,2013-10-15 18:04:00,
2013-10-15 14:19:00,71.2,59.0,30.14,SSW,213,2.0,5.0,65,0.00,,,0.00,weatherlink.com 1.10,2013-10-15 18:19:00,
2013-10-15 14:34:00,70.9,58.0,30.13,WSW,257,2.0,7.0,64,0.00,,,0.00,weatherlink.com 1.10,2013-10-15 18:34:00,
2013-10-15 14:49:00,71.2,59.0,30.13,WSW,258,2.0,5.0,66,0.00,,,0.00,weatherlink.com 1.10,2013-10-15 18:49:00,
2013-10-15 15:04:00,70.2,58.0,30.12,WNW,283,1.0,6.0,66,0.00,,,0.00,weatherlink.com 1.10,2013-10-15 19:04:00,
2013-10-15 15:19:00,69.8,59.0,30.12,WNW,292,2.0,4.0,68,0.00,,,0.00,weatherlink.com 1.10,2013-10-15 19:19:00,
2013-10-15 15:34:00,69.7,58.0,30.11,WNW,290,2.0,5.0,67,0.00,,,0.00,weatherlink.com 1.10,2013-10-15 19:34:00,
2013-10-15 15:49:00,69.7,58.0,30.11,NW,306,2.0,4.0,66,0.00,,,0.00,weatherlink.com 1.10,2013-10-15 19:49:00,
2013-10-15 16:04:00,69.8,58.0,30.10,SW,215,2.0,3.0,67,0.00,,,0.00,weatherlink.com 1.10,2013-10-15 20:04:00,
2013-10-15 16:19:00,69.8,58.0,30.10,SW,219,0.0,3.0,67,0.00,,,0.00,weatherlink.com 1.10,2013-10-15 20:19:00,
2013-10-15 16:34:00,69.7,58.0,30.11,SE,145,2.0,2.0,67,0.00,,,0.00,weatherlink.com 1.10,2013-10-15 20:34:00,
2013-10-15 16:49:00,69.4,58.0,30.10,WSW,251,1.0,4.0,67,0.00,,,0.00,weatherlink.com 1.10,2013-10-15 20:49:00,
2013-10-15 17:04:00,69.3,58.0,30.10,SW,232,1.0,3.0,68,0.00,,,0.00,weatherlink.com 1.10,2013-10-15 21:04:00,
2013-10-15 17:19:00,69.1,59.0,30.10,SW,236,2.0,2.0,69,0.00,,,0.00,weatherlink.com 1.10,2013-10-15 21:19:00,
2013-10-15 17:34:00,68.4,59.0,30.10,SW,236,1.0,2.0,71,0.00,,,0.00,weatherlink.com 1.10,2013-10-15 21:34:00,
2013-10-15 17:49:00,67.7,59.0,30.11,SW,236,0.0,1.0,74,0.00,,,0.00,weatherlink.com 1.10,2013-10-15 21:49:00,
2013-10-15 18:04:00,66.8,59.0,30.10,SW,236,0.0,1.0,77,0.00,,,0.00,weatherlink.com 1.10,2013-10-15 22:04:00,
2013-10-15 18:19:00,65.8,59.0,30.11,SW,236,1.0,1.0,78,0.00,,,0.00,weatherlink.com 1.10,2013-10-15 22:19:00,
2013-10-15 18:34:00,65.4,59.0,30.11,SW,236,1.0,1.0,80,0.00,,,0.00,weatherlink.com 1.10,2013-10-15 22:34:00,
2013-10-15 18:49:00,64.7,59.0,30.12,SW,236,0.0,1.0,82,0.00,,,0.00,weatherlink.com 1.10,2013-10-15 22:49:00,
2013-10-15 19:04:00,63.9,59.0,30.11,SW,236,0.0,0.0,83,0.00,,,0.00,weatherlink.com 1.10,2013-10-15 23:04:00,
2013-10-15 19:19:00,63.6,58.0,30.11,SW,236,0.0,0.0,83,0.00,,,0.00,weatherlink.com 1.10,2013-10-15 23:19:00,
2013-10-15 19:34:00,63.5,59.0,30.11,SW,236,0.0,0.0,85,0.00,,,0.00,weatherlink.com 1.10,2013-10-15 23:34:00,
2013-10-15 19:49:00,63.1,58.0,30.11,SW,236,0.0,0.0,84,0.00,,,0.00,weatherlink.com 1.10,2013-10-15 23:49:00,
2013-10-15 20:04:00,62.8,59.0,30.11,SW,236,0.0,0.0,86,0.00,,,0.00,weatherlink.com 1.10,2013-10-16 00:04:00,
2013-10-15 20:19:00,62.5,58.0,30.11,SW,236,0.0,0.0,86,0.00,,,0.00,weatherlink.com 1.10,2013-10-16 00:19:00,
2013-10-15 20:35:00,62.3,59.0,30.11,SW,236,1.0,1.0,88,0.00,,,0.00,weatherlink.com 1.10,2013-10-16 00:35:00,
2013-10-15 20:49:00,63.6,57.0,30.11,SSW,209,2.0,5.0,79,0.00,,,0.00,weatherlink.com 1.10,2013-10-16 00:49:00,
2013-10-15 21:04:00,64.7,55.0,30.11,SSW,197,3.0,6.0,71,0.00,,,0.00,weatherlink.com 1.10,2013-10-16 01:04:00,
2013-10-15 21:19:00,64.0,53.0,30.11,South,182,2.0,5.0,68,0.00,,,0.00,weatherlink.com 1.10,2013-10-16 01:19:00,
2013-10-15 21:35:00,62.8,52.0,30.11,SSW,206,1.0,4.0,69,0.00,,,0.00,weatherlink.com 1.10,2013-10-16 01:35:00,
2013-10-15 21:50:00,61.4,52.0,30.12,WSW,246,1.0,4.0,70,0.00,,,0.00,weatherlink.com 1.10,2013-10-16 01:50:00,
2013-10-15 22:05:00,60.6,50.0,30.12,WNW,297,2.0,5.0,67,0.00,,,0.00,weatherlink.com 1.10,2013-10-16 02:05:00,
2013-10-15 22:20:00,58.9,50.0,30.12,West,278,2.0,3.0,72,0.00,,,0.00,weatherlink.com 1.10,2013-10-16 02:20:00,
2013-10-15 22:35:00,59.2,49.0,30.12,West,263,1.0,6.0,70,0.00,,,0.00,weatherlink.com 1.10,2013-10-16 02:35:00,
2013-10-15 22:50:00,59.1,49.0,30.12,South,188,0.0,2.0,69,0.00,,,0.00,weatherlink.com 1.10,2013-10-16 02:50:00,
2013-10-15 23:05:00,58.4,48.0,30.12,West,281,0.0,3.0,69,0.00,,,0.00,weatherlink.com 1.10,2013-10-16 03:05:00,
2013-10-15 23:20:00,57.0,47.0,30.11,WSW,254,0.0,2.0,69,0.00,,,0.00,weatherlink.com 1.10,2013-10-16 03:20:00,
2013-10-15 23:35:00,56.4,46.0,30.11,WSW,256,1.0,4.0,69,0.00,,,0.00,weatherlink.com 1.10,2013-10-16 03:35:00,
2013-10-15 23:50:00,56.2,46.0,30.11,WNW,290,1.0,4.0,69,0.00,,,0.00,weatherlink.com 1.10,2013-10-16 03:50:00,